Skip Navigation Links
NOAA logo - Click to go to the NOAA homepage
NOAA's National Weather Service
Alaska Aviation Weather Unit
  NWS logo - Click to go to the NWS homepage
Left Navbar Graphic     19 AKDT = 03 GMT

   
NOAA is celebrating 200 years of science, service, and stewardship. Visit the NOAA 200th celebration Web site to learn more.
USA.gov is the U.S. Government's official Web portal to all Federal, state and local government Web resources and services.
Facebook
NWS on Facebook

Important Change Regarding the AAWU Web Presence

 

Over the last several months, the AAWU has been working to navigate its webpages to a nationally supported server. Security, as well as other needs, have necessitated the change.  We have been given an extension for the site changeover while we diligently work at addressing feedback received. As of July 14, 2017, aawu.arh.noaa.gov will be discontinued. The new AAWU web address is weather.gov/aawu. It is now live and will run in-parallel with the old site until it is discontinued on July 14, 2017. Please continue to send any feedback or questions regarding the new webpages to nws.ar.aawu.webauthors@noaa.gov.  Thank you for your patience during this time of transition.
AAWU Home :: Display TAF Add Bookmark
METAR PAZK 282156Z AUTO 05011G14KT 10SM OVC055 13/01 A2995 RMK AO2
     SLP163 T01330011=

METAR PAZK 282356Z AUTO VRB03KT 10SM OVC060 13/01 A2994 RMK AO2 SLP159
     T01330011 10144 20089 58005=

METAR PAZK 290056Z AUTO 04008KT 10SM CLR 14/01 A2993 RMK AO2 SLP157
     T01440011=

METAR PAZK 290156Z AUTO 02006KT 10SM CLR 14/01 A2993 RMK AO2 SLP155
     T01390006=

METAR PAZK 290256Z AUTO 03007KT 10SM CLR 14/01 A2992 RMK AO2 SLP150
     T01390006 58006=


NOAA's National Weather Service
Alaska Aviation Weather Unit
6930 Sand Lake Road
Anchorage, AK 99502-1845
Disclaimer
Credits
Glossary
Privacy Policy
About Us
Career Opportunities
Contact AAWU Internet Services Site last modified: April, 17th 2012